Omskiy-141 — UGZK — position and weather

sailwx.info

Track history (hours):
 
Tides and Currents Weather Stations Pressure Air Temp Water Temp Dewpoint Dewpoint Depression Visibility Wind Speed Wind Dir Waves Ship Positions

Omskiy-141

Last reported at 2014-Jul-31 08:32 UTC. Time now 2014-Jul-31 09:27 UTC.
Position N 59°55' E 030°15'.

Length 108 m; draft 2.7 m.

Type: Cargo ship. MMSI: 273310600.

Date/timePositionNaut miles runAvg speedWind from/ knotsBaromVisibWave heightAir tempDewpointWater temp
2014-Jul-31 08:32N 59°55' E 030°15'0 0.0
2014-Jul-31 07:32N 59°55' E 030°15'85 7.7
2014-Jul-30 20:32N 60°04' E 027°27'19 8.6
2014-Jul-30 18:22N 59°58' E 026°51'7 8.5
2014-Jul-30 17:34N 59°59' E 026°38'67 8.4
2014-Jul-30 09:33N 59°43' E 024°28'8 8.4
2014-Jul-30 08:33N 59°42' E 024°12'9 8.8
2014-Jul-30 07:33N 59°40' E 023°54'9 8.6
2014-Jul-30 06:33N 59°39' E 023°38'27 9.0
2014-Jul-30 03:33N 59°37' E 022°45'27 9.0
2014-Jul-30 00:33N 59°36' E 021°51'9 8.8
2014-Jul-29 23:33N 59°36' E 021°33'  
2014-Jul-25 19:14N 59°36' E 021°05'6 8.7
2014-Jul-25 18:33N 59°36' E 021°17'9 8.5
2014-Jul-25 17:33N 59°36' E 021°33'8 8.2
2014-Jul-25 16:33N 59°36' E 021°50'8 7.9
2014-Jul-25 15:33N 59°36' E 022°05'16 8.0
2014-Jul-25 13:31N 59°36' E 022°38'7 7.7
2014-Jul-25 12:33N 59°36' E 022°52'8 8.0
2014-Jul-25 11:33N 59°38' E 023°07'8 7.7
2014-Jul-25 10:33N 59°40' E 023°22'8 7.8
2014-Jul-25 09:33N 59°42' E 023°38'8 8.0
2014-Jul-25 08:32N 59°44' E 023°53'9 7.9
2014-Jul-25 07:26N 59°46' E 024°10'10 8.3
2014-Jul-25 06:16N 59°48' E 024°29'7 8.0
2014-Jul-25 05:23N 59°50' E 024°43'6 7.9
2014-Jul-25 04:33N 59°51' E 024°55'8 8.5
2014-Jul-25 03:33N 59°53' E 025°12'9 9.0
2014-Jul-25 02:33N 59°55' E 025°29'9 8.8
2014-Jul-25 01:33N 59°56' E 025°47'9 8.6
2014-Jul-25 00:33N 59°58' E 026°03'9 8.6
2014-Jul-24 23:34N 60°00' E 026°20'8 8.2
2014-Jul-24 22:32N 60°02' E 026°36'8 8.3
2014-Jul-24 21:32N 60°00' E 026°53'98 7.9
2014-Jul-24 09:07N 59°54' E 030°08'3 4.4
2014-Jul-24 08:32N 59°54' E 030°13'0 0.0
2014-Jul-24 02:33N 59°54' E 030°13'0 0.0
2014-Jul-24 01:30N 59°54' E 030°13'0 0.2
2014-Jul-24 00:32N 59°54' E 030°13'  
Track history (hours):
 
Tides and Currents Weather Stations Pressure Air Temp Water Temp Dewpoint Dewpoint Depression Visibility Wind Speed Wind Dir Waves Ship Positions

Omskiy-141

Last reported at 2014-Jul-31 08:32 UTC. Time now 2014-Jul-31 09:27 UTC.
Position N 59°55' E 030°15'.

Length 108 m; draft 2.7 m.

Type: Cargo ship. MMSI: 273310600.

Date/timePositionNaut miles runAvg speedWind from/ knotsBaromVisibWave heightAir tempDewpointWater temp
2014-Jul-31 08:32N 59°55' E 030°15'0 0.0
2014-Jul-31 07:32N 59°55' E 030°15'85 7.7
2014-Jul-30 20:32N 60°04' E 027°27'19 8.6
2014-Jul-30 18:22N 59°58' E 026°51'7 8.5
2014-Jul-30 17:34N 59°59' E 026°38'67 8.4
2014-Jul-30 09:33N 59°43' E 024°28'8 8.4
2014-Jul-30 08:33N 59°42' E 024°12'9 8.8
2014-Jul-30 07:33N 59°40' E 023°54'9 8.6
2014-Jul-30 06:33N 59°39' E 023°38'27 9.0
2014-Jul-30 03:33N 59°37' E 022°45'27 9.0
2014-Jul-30 00:33N 59°36' E 021°51'9 8.8
2014-Jul-29 23:33N 59°36' E 021°33'  
2014-Jul-25 19:14N 59°36' E 021°05'6 8.7
2014-Jul-25 18:33N 59°36' E 021°17'9 8.5
2014-Jul-25 17:33N 59°36' E 021°33'8 8.2
2014-Jul-25 16:33N 59°36' E 021°50'8 7.9
2014-Jul-25 15:33N 59°36' E 022°05'16 8.0
2014-Jul-25 13:31N 59°36' E 022°38'7 7.7
2014-Jul-25 12:33N 59°36' E 022°52'8 8.0
2014-Jul-25 11:33N 59°38' E 023°07'8 7.7
2014-Jul-25 10:33N 59°40' E 023°22'8 7.8
2014-Jul-25 09:33N 59°42' E 023°38'8 8.0
2014-Jul-25 08:32N 59°44' E 023°53'9 7.9
2014-Jul-25 07:26N 59°46' E 024°10'10 8.3
2014-Jul-25 06:16N 59°48' E 024°29'7 8.0
2014-Jul-25 05:23N 59°50' E 024°43'6 7.9
2014-Jul-25 04:33N 59°51' E 024°55'8 8.5
2014-Jul-25 03:33N 59°53' E 025°12'9 9.0
2014-Jul-25 02:33N 59°55' E 025°29'9 8.8
2014-Jul-25 01:33N 59°56' E 025°47'9 8.6
2014-Jul-25 00:33N 59°58' E 026°03'9 8.6
2014-Jul-24 23:34N 60°00' E 026°20'8 8.2
2014-Jul-24 22:32N 60°02' E 026°36'8 8.3
2014-Jul-24 21:32N 60°00' E 026°53'98 7.9
2014-Jul-24 09:07N 59°54' E 030°08'3 4.4
2014-Jul-24 08:32N 59°54' E 030°13'0 0.0
2014-Jul-24 02:33N 59°54' E 030°13'0 0.0
2014-Jul-24 01:30N 59°54' E 030°13'0 0.2
2014-Jul-24 00:32N 59°54' E 030°13'  

Dump ship's entire track history